sensor_id;sensor_type;location;lat;lon;timestamp;pressure;altitude;pressure_sealevel;temperature;humidity
5500;BME280;2772;42.700;23.304;2023-02-11T00:00:54;96842.66;;;0.74;100.00
5500;BME280;2772;42.700;23.304;2023-02-11T00:03:21;96838.41;;;0.54;100.00
5500;BME280;2772;42.700;23.304;2023-02-11T00:05:56;96836.22;;;0.57;99.97
5500;BME280;2772;42.700;23.304;2023-02-11T00:08:23;96836.81;;;0.72;100.00
5500;BME280;2772;42.700;23.304;2023-02-11T00:10:50;96840.03;;;0.68;100.00
5500;BME280;2772;42.700;23.304;2023-02-11T00:13:17;96846.06;;;0.55;100.00
5500;BME280;2772;42.700;23.304;2023-02-11T00:15:45;96836.59;;;0.48;96.56
5500;BME280;2772;42.700;23.304;2023-02-11T00:18:12;96851.09;;;0.50;95.56
5500;BME280;2772;42.700;23.304;2023-02-11T00:20:39;96842.22;;;0.38;95.05
5500;BME280;2772;42.700;23.304;2023-02-11T00:23:06;96846.06;;;0.49;100.00
5500;BME280;2772;42.700;23.304;2023-02-11T00:25:33;96842.84;;;0.40;99.83
5500;BME280;2772;42.700;23.304;2023-02-11T00:28:01;96847.44;;;0.19;95.77
5500;BME280;2772;42.700;23.304;2023-02-11T00:30:28;96839.19;;;0.22;100.00
5500;BME280;2772;42.700;23.304;2023-02-11T00:32:56;96835.19;;;0.32;100.00
5500;BME280;2772;42.700;23.304;2023-02-11T00:35:23;96829.72;;;0.34;100.00
5500;BME280;2772;42.700;23.304;2023-02-11T00:37:51;96838.78;;;0.25;98.06
5500;BME280;2772;42.700;23.304;2023-02-11T00:40:18;96849.59;;;0.02;93.99
5500;BME280;2772;42.700;23.304;2023-02-11T00:42:45;96835.28;;;-0.09;92.39
5500;BME280;2772;42.700;23.304;2023-02-11T00:45:12;96836.94;;;0.06;100.00
5500;BME280;2772;42.700;23.304;2023-02-11T00:47:38;96829.91;;;0.19;100.00
5500;BME280;2772;42.700;23.304;2023-02-11T00:50:07;96828.50;;;0.36;100.00
5500;BME280;2772;42.700;23.304;2023-02-11T00:52:34;96827.47;;;0.18;100.00
5500;BME280;2772;42.700;23.304;2023-02-11T00:55:01;96824.88;;;0.18;100.00
5500;BME280;2772;42.700;23.304;2023-02-11T00:57:28;96821.63;;;0.03;95.40
5500;BME280;2772;42.700;23.304;2023-02-11T00:59:54;96827.84;;;-0.05;93.90
5500;BME280;2772;42.700;23.304;2023-02-11T01:02:21;96819.78;;;-0.10;92.42
5500;BME280;2772;42.700;23.304;2023-02-11T01:04:48;96825.25;;;-0.05;97.29
5500;BME280;2772;42.700;23.304;2023-02-11T01:07:16;96823.81;;;-0.01;100.00
5500;BME280;2772;42.700;23.304;2023-02-11T01:09:43;96821.97;;;-0.14;96.44
5500;BME280;2772;42.700;23.304;2023-02-11T01:12:09;96821.94;;;-0.20;91.66
5500;BME280;2772;42.700;23.304;2023-02-11T01:14:36;96824.75;;;-0.28;89.30
5500;BME280;2772;42.700;23.304;2023-02-11T01:17:03;96820.13;;;-0.26;89.53
5500;BME280;2772;42.700;23.304;2023-02-11T01:19:30;96828.38;;;-0.29;88.87
5500;BME280;2772;42.700;23.304;2023-02-11T01:21:57;96823.94;;;-0.35;88.37
5500;BME280;2772;42.700;23.304;2023-02-11T01:24:25;96819.47;;;-0.41;88.83
5500;BME280;2772;42.700;23.304;2023-02-11T01:26:52;96819.47;;;-0.41;89.03
5500;BME280;2772;42.700;23.304;2023-02-11T01:29:19;96821.47;;;-0.43;89.30
5500;BME280;2772;42.700;23.304;2023-02-11T01:31:46;96826.00;;;-0.65;88.77
5500;BME280;2772;42.700;23.304;2023-02-11T01:34:13;96821.56;;;-0.71;89.43
5500;BME280;2772;42.700;23.304;2023-02-11T01:36:40;96812.50;;;-0.68;89.64
5500;BME280;2772;42.700;23.304;2023-02-11T01:39:06;96818.28;;;-0.79;90.13
5500;BME280;2772;42.700;23.304;2023-02-11T01:41:35;96812.81;;;-0.84;91.29
5500;BME280;2772;42.700;23.304;2023-02-11T01:44:21;96810.81;;;-0.82;91.20
5500;BME280;2772;42.700;23.304;2023-02-11T01:46:48;96810.81;;;-0.82;90.94
5500;BME280;2772;42.700;23.304;2023-02-11T01:49:18;96811.84;;;-0.83;91.26
5500;BME280;2772;42.700;23.304;2023-02-11T01:51:50;96813.22;;;-0.87;91.07
5500;BME280;2772;42.700;23.304;2023-02-11T01:54:21;96811.59;;;-0.88;91.61
5500;BME280;2772;42.700;23.304;2023-02-11T01:57:07;96806.53;;;-0.96;92.10
5500;BME280;2772;42.700;23.304;2023-02-11T01:59:57;96804.00;;;-0.83;92.12
5500;BME280;2772;42.700;23.304;2023-02-11T02:02:28;96814.44;;;-0.83;91.87
5500;BME280;2772;42.700;23.304;2023-02-11T02:05:01;96791.06;;;-0.91;91.80
5500;BME280;2772;42.700;23.304;2023-02-11T02:07:32;96811.59;;;-0.88;91.26
5500;BME280;2772;42.700;23.304;2023-02-11T02:10:04;96821.06;;;-0.87;91.21
5500;BME280;2772;42.700;23.304;2023-02-11T02:12:35;96810.22;;;-0.84;91.20
5500;BME280;2772;42.700;23.304;2023-02-11T02:15:18;96804.16;;;-0.91;91.17
5500;BME280;2772;42.700;23.304;2023-02-11T02:17:51;96807.78;;;-0.86;90.98
5500;BME280;2772;42.700;23.304;2023-02-11T02:20:43;96805.38;;;-0.87;91.19
5500;BME280;2772;42.700;23.304;2023-02-11T02:23:32;96808.75;;;-0.93;91.35
5500;BME280;2772;42.700;23.304;2023-02-11T02:26:25;96810.50;;;-1.07;91.57
5500;BME280;2772;42.700;23.304;2023-02-11T02:29:28;96808.66;;;-1.13;92.33
5500;BME280;2772;42.700;23.304;2023-02-11T02:32:37;96809.09;;;-1.09;92.27
5500;BME280;2772;42.700;23.304;2023-02-11T02:35:13;96804.22;;;-1.12;91.96
5500;BME280;2772;42.700;23.304;2023-02-11T02:37:46;96805.03;;;-1.39;93.69
5500;BME280;2772;42.700;23.304;2023-02-11T02:40:18;96808.88;;;-1.35;94.15
5500;BME280;2772;42.700;23.304;2023-02-11T02:42:46;96800.19;;;-1.42;94.30
5500;BME280;2772;42.700;23.304;2023-02-11T02:45:13;96809.69;;;-1.63;95.39
5500;BME280;2772;42.700;23.304;2023-02-11T02:47:42;96811.44;;;-1.70;95.30
5500;BME280;2772;42.700;23.304;2023-02-11T02:50:09;96809.44;;;-1.68;95.81
5500;BME280;2772;42.700;23.304;2023-02-11T02:52:41;96810.72;;;-1.57;95.92
5500;BME280;2772;42.700;23.304;2023-02-11T02:58:17;96809.59;;;-1.48;95.39
5500;BME280;2772;42.700;23.304;2023-02-11T03:00:56;96807.75;;;-1.54;95.01
5500;BME280;2772;42.700;23.304;2023-02-11T03:03:34;96808.25;;;-1.65;94.57
5500;BME280;2772;42.700;23.304;2023-02-11T03:06:10;96814.34;;;-1.58;94.95
5500;BME280;2772;42.700;23.304;2023-02-11T03:08:42;96815.13;;;-1.58;95.15
5500;BME280;2772;42.700;23.304;2023-02-11T03:11:14;96814.75;;;-1.54;94.64
5500;BME280;2772;42.700;23.304;2023-02-11T03:13:42;96808.44;;;-1.67;95.42
5500;BME280;2772;42.700;23.304;2023-02-11T03:16:12;96814.34;;;-1.58;95.83
5500;BME280;2772;42.700;23.304;2023-02-11T03:18:46;96808.31;;;-1.58;95.15
5500;BME280;2772;42.700;23.304;2023-02-11T03:21:15;96810.78;;;-1.50;95.48
5500;BME280;2772;42.700;23.304;2023-02-11T03:23:48;96815.25;;;-1.44;94.49
5500;BME280;2772;42.700;23.304;2023-02-11T03:26:17;96810.28;;;-1.61;94.61
5500;BME280;2772;42.700;23.304;2023-02-11T03:28:51;96804.19;;;-1.46;95.01
5500;BME280;2772;42.700;23.304;2023-02-11T03:31:26;96815.63;;;-1.47;94.74
5500;BME280;2772;42.700;23.304;2023-02-11T03:33:59;96817.22;;;-1.46;93.80
5500;BME280;2772;42.700;23.304;2023-02-11T03:36:31;96814.03;;;-1.48;94.02
5500;BME280;2772;42.700;23.304;2023-02-11T03:39:02;96808.56;;;-1.53;93.72
5500;BME280;2772;42.700;23.304;2023-02-11T03:41:30;96805.75;;;-1.52;94.18
5500;BME280;2772;42.700;23.304;2023-02-11T03:43:58;96800.34;;;-1.50;93.44
5500;BME280;2772;42.700;23.304;2023-02-11T03:46:29;96797.72;;;-1.50;93.68
5500;BME280;2772;42.700;23.304;2023-02-11T03:49:02;96803.09;;;-1.58;93.64
5500;BME280;2772;42.700;23.304;2023-02-11T03:51:31;96793.88;;;-1.54;94.24
5500;BME280;2772;42.700;23.304;2023-02-11T03:54:01;96803.53;;;-1.55;94.43
5500;BME280;2772;42.700;23.304;2023-02-11T03:56:33;96806.31;;;-1.56;93.92
5500;BME280;2772;42.700;23.304;2023-02-11T03:59:02;96806.50;;;-1.58;94.05
5500;BME280;2772;42.700;23.304;2023-02-11T04:01:28;96801.41;;;-1.66;93.79
5500;BME280;2772;42.700;23.304;2023-02-11T04:03:55;96805.69;;;-1.58;94.00
5500;BME280;2772;42.700;23.304;2023-02-11T04:06:23;96804.47;;;-1.63;93.96
5500;BME280;2772;42.700;23.304;2023-02-11T04:08:50;96812.06;;;-1.68;94.27
5500;BME280;2772;42.700;23.304;2023-02-11T04:11:16;96804.69;;;-1.58;94.03
5500;BME280;2772;42.700;23.304;2023-02-11T04:13:43;96810.09;;;-1.59;93.75
5500;BME280;2772;42.700;23.304;2023-02-11T04:16:10;96810.66;;;-1.64;94.07
5500;BME280;2772;42.700;23.304;2023-02-11T04:18:36;96801.66;;;-1.61;94.05
5500;BME280;2772;42.700;23.304;2023-02-11T04:21:03;96807.34;;;-1.51;93.48
5500;BME280;2772;42.700;23.304;2023-02-11T04:23:31;96811.53;;;-1.56;93.30
5500;BME280;2772;42.700;23.304;2023-02-11T04:25:58;96811.78;;;-1.51;94.03
5500;BME280;2772;42.700;23.304;2023-02-11T04:28:25;96800.53;;;-1.52;93.17
5500;BME280;2772;42.700;23.304;2023-02-11T04:30:54;96798.75;;;-1.51;92.63
5500;BME280;2772;42.700;23.304;2023-02-11T04:33:20;96799.16;;;-1.48;92.86
5500;BME280;2772;42.700;23.304;2023-02-11T04:35:47;96806.72;;;-1.53;92.59
5500;BME280;2772;42.700;23.304;2023-02-11T04:38:14;96803.53;;;-1.55;92.93
5500;BME280;2772;42.700;23.304;2023-02-11T04:40:42;96796.47;;;-1.54;92.46
5500;BME280;2772;42.700;23.304;2023-02-11T04:43:09;96793.03;;;-1.62;92.76
5500;BME280;2772;42.700;23.304;2023-02-11T04:45:36;96792.31;;;-1.77;93.09
5500;BME280;2772;42.700;23.304;2023-02-11T04:48:03;96791.94;;;-1.74;94.15
5500;BME280;2772;42.700;23.304;2023-02-11T04:50:29;96794.91;;;-1.77;94.69
5500;BME280;2772;42.700;23.304;2023-02-11T04:52:56;96795.75;;;-1.70;95.12
5500;BME280;2772;42.700;23.304;2023-02-11T04:55:23;96797.03;;;-1.66;94.95
5500;BME280;2772;42.700;23.304;2023-02-11T04:57:51;96795.81;;;-1.63;94.54
5500;BME280;2772;42.700;23.304;2023-02-11T05:00:18;96790.03;;;-1.58;94.61
5500;BME280;2772;42.700;23.304;2023-02-11T05:02:44;96796.84;;;-1.58;94.49
5500;BME280;2772;42.700;23.304;2023-02-11T05:05:11;96796.72;;;-1.49;94.10
5500;BME280;2772;42.700;23.304;2023-02-11T05:07:38;96781.88;;;-1.49;94.04
5500;BME280;2772;42.700;23.304;2023-02-11T05:10:05;96793.06;;;-1.55;94.08
5500;BME280;2772;42.700;23.304;2023-02-11T05:12:31;96783.84;;;-1.51;94.00
5500;BME280;2772;42.700;23.304;2023-02-11T05:14:59;96781.06;;;-1.49;94.10
5500;BME280;2772;42.700;23.304;2023-02-11T05:17:26;96789.00;;;-1.64;94.43
5500;BME280;2772;42.700;23.304;2023-02-11T05:19:53;96784.19;;;-1.61;94.53
5500;BME280;2772;42.700;23.304;2023-02-11T05:22:20;96784.56;;;-1.64;95.08
5500;BME280;2772;42.700;23.304;2023-02-11T05:24:47;96789.72;;;-1.70;95.64
5500;BME280;2772;42.700;23.304;2023-02-11T05:27:13;96782.66;;;-1.76;97.06
5500;BME280;2772;42.700;23.304;2023-02-11T05:29:40;96778.25;;;-1.76;97.10
5500;BME280;2772;42.700;23.304;2023-02-11T05:32:08;96776.81;;;-1.78;97.53
5500;BME280;2772;42.700;23.304;2023-02-11T05:34:35;96776.63;;;-1.77;97.57
5500;BME280;2772;42.700;23.304;2023-02-11T05:37:02;96779.56;;;-2.07;98.47
5500;BME280;2772;42.700;23.304;2023-02-11T05:39:28;96778.81;;;-2.01;99.25
5500;BME280;2772;42.700;23.304;2023-02-11T05:41:55;96780.06;;;-1.97;99.60
5500;BME280;2772;42.700;23.304;2023-02-11T05:44:22;96780.13;;;-2.12;100.00
5500;BME280;2772;42.700;23.304;2023-02-11T05:46:48;96779.06;;;-1.96;100.00
5500;BME280;2772;42.700;23.304;2023-02-11T05:49:16;96786.94;;;-2.11;99.66
5500;BME280;2772;42.700;23.304;2023-02-11T05:51:43;96792.41;;;-2.06;99.68
5500;BME280;2772;42.700;23.304;2023-02-11T05:54:10;96790.13;;;-2.15;99.21
5500;BME280;2772;42.700;23.304;2023-02-11T05:56:36;96788.63;;;-2.24;98.79
5500;BME280;2772;42.700;23.304;2023-02-11T05:59:03;96794.47;;;-2.22;98.58
5500;BME280;2772;42.700;23.304;2023-02-11T06:01:30;96798.50;;;-2.20;97.77
5500;BME280;2772;42.700;23.304;2023-02-11T06:03:57;96786.09;;;-2.18;97.73
5500;BME280;2772;42.700;23.304;2023-02-11T06:06:25;96790.78;;;-2.28;97.26
5500;BME280;2772;42.700;23.304;2023-02-11T06:08:52;96792.03;;;-2.24;97.29
5500;BME280;2772;42.700;23.304;2023-02-11T06:11:18;96799.25;;;-2.26;97.38
5500;BME280;2772;42.700;23.304;2023-02-11T06:13:45;96798.19;;;-2.31;97.26
5500;BME280;2772;42.700;23.304;2023-02-11T06:16:12;96805.94;;;-2.38;97.24
5500;BME280;2772;42.700;23.304;2023-02-11T06:18:38;96800.72;;;-2.38;97.34
5500;BME280;2772;42.700;23.304;2023-02-11T06:21:06;96799.72;;;-2.37;98.04
5500;BME280;2772;42.700;23.304;2023-02-11T06:23:34;96802.53;;;-2.53;98.18
5500;BME280;2772;42.700;23.304;2023-02-11T06:26:02;96799.22;;;-2.47;99.42
5500;BME280;2772;42.700;23.304;2023-02-11T06:28:30;96800.56;;;-2.51;100.00
5500;BME280;2772;42.700;23.304;2023-02-11T06:30:57;96799.16;;;-2.32;100.00
5500;BME280;2772;42.700;23.304;2023-02-11T06:33:24;96797.81;;;-2.28;99.61
5500;BME280;2772;42.700;23.304;2023-02-11T06:35:50;96808.81;;;-2.33;99.06
5500;BME280;2772;42.700;23.304;2023-02-11T06:38:17;96812.03;;;-2.31;99.67
5500;BME280;2772;42.700;23.304;2023-02-11T06:40:47;96804.38;;;-2.32;99.47
5500;BME280;2772;42.700;23.304;2023-02-11T06:43:14;96807.06;;;-2.26;99.66
5500;BME280;2772;42.700;23.304;2023-02-11T06:45:41;96813.66;;;-2.30;99.38
5500;BME280;2772;42.700;23.304;2023-02-11T06:48:08;96810.16;;;-2.37;100.00
5500;BME280;2772;42.700;23.304;2023-02-11T06:50:35;96811.59;;;-2.34;100.00
5500;BME280;2772;42.700;23.304;2023-02-11T06:53:02;96817.59;;;-2.34;100.00
5500;BME280;2772;42.700;23.304;2023-02-11T06:55:29;96808.44;;;-2.30;100.00
5500;BME280;2772;42.700;23.304;2023-02-11T06:57:57;96811.78;;;-2.36;100.00
5500;BME280;2772;42.700;23.304;2023-02-11T07:00:23;96803.72;;;-2.20;100.00
5500;BME280;2772;42.700;23.304;2023-02-11T07:02:50;96808.34;;;-2.22;100.00
5500;BME280;2772;42.700;23.304;2023-02-11T07:05:18;96806.59;;;-2.15;100.00
5500;BME280;2772;42.700;23.304;2023-02-11T07:07:44;96810.97;;;-2.15;100.00
5500;BME280;2772;42.700;23.304;2023-02-11T07:10:11;96807.22;;;-2.13;100.00
5500;BME280;2772;42.700;23.304;2023-02-11T07:12:38;96804.53;;;-1.98;100.00
5500;BME280;2772;42.700;23.304;2023-02-11T07:15:07;96809.56;;;-1.97;100.00
5500;BME280;2772;42.700;23.304;2023-02-11T07:17:34;96799.69;;;-1.80;100.00
5500;BME280;2772;42.700;23.304;2023-02-11T07:20:02;96793.28;;;-1.78;100.00
5500;BME280;2772;42.700;23.304;2023-02-11T07:22:29;96803.72;;;-1.78;100.00
5500;BME280;2772;42.700;23.304;2023-02-11T07:24:55;96809.88;;;-1.64;100.00
5500;BME280;2772;42.700;23.304;2023-02-11T07:27:22;96802.50;;;-1.54;100.00
5500;BME280;2772;42.700;23.304;2023-02-11T07:29:49;96796.13;;;-1.51;100.00
5500;BME280;2772;42.700;23.304;2023-02-11T07:32:17;96789.56;;;-1.41;99.12
5500;BME280;2772;42.700;23.304;2023-02-11T07:34:43;96783.91;;;-1.44;99.17
5500;BME280;2772;42.700;23.304;2023-02-11T07:37:12;96792.44;;;-1.29;100.00
5500;BME280;2772;42.700;23.304;2023-02-11T07:39:38;96776.06;;;-0.76;100.00
5500;BME280;2772;42.700;23.304;2023-02-11T07:42:05;96772.00;;;-0.85;100.00
5500;BME280;2772;42.700;23.304;2023-02-11T07:44:32;96771.38;;;-0.87;100.00
5500;BME280;2772;42.700;23.304;2023-02-11T07:46:59;96761.34;;;-0.84;100.00
5500;BME280;2772;42.700;23.304;2023-02-11T07:49:27;96761.31;;;-0.90;99.83
5500;BME280;2772;42.700;23.304;2023-02-11T07:51:54;96763.81;;;-0.76;98.74
5500;BME280;2772;42.700;23.304;2023-02-11T07:54:21;96763.84;;;-0.69;98.32
5500;BME280;2772;42.700;23.304;2023-02-11T07:56:47;96775.88;;;-0.75;97.65
5500;BME280;2772;42.700;23.304;2023-02-11T07:59:14;96761.78;;;-0.80;97.77
5500;BME280;2772;42.700;23.304;2023-02-11T08:01:41;96767.84;;;-0.67;97.99
5500;BME280;2772;42.700;23.304;2023-02-11T08:04:08;96766.88;;;-0.59;98.30
5500;BME280;2772;42.700;23.304;2023-02-11T08:06:39;96757.59;;;-0.68;98.91
5500;BME280;2772;42.700;23.304;2023-02-11T08:09:07;96770.72;;;-0.55;98.79
5500;BME280;2772;42.700;23.304;2023-02-11T08:11:34;96764.13;;;-0.45;97.93
5500;BME280;2772;42.700;23.304;2023-02-11T08:14:01;96766.94;;;-0.40;96.62
5500;BME280;2772;42.700;23.304;2023-02-11T08:16:29;96757.44;;;-0.60;96.31
5500;BME280;2772;42.700;23.304;2023-02-11T08:18:59;96756.06;;;-0.43;96.15
5500;BME280;2772;42.700;23.304;2023-02-11T08:21:27;96757.28;;;-0.33;95.84
5500;BME280;2772;42.700;23.304;2023-02-11T08:23:55;96761.56;;;-0.19;95.05
5500;BME280;2772;42.700;23.304;2023-02-11T08:26:24;96756.75;;;-0.15;94.58
5500;BME280;2772;42.700;23.304;2023-02-11T08:28:53;96755.75;;;-0.21;94.27
5500;BME280;2772;42.700;23.304;2023-02-11T08:31:21;96753.72;;;-0.19;95.06
5500;BME280;2772;42.700;23.304;2023-02-11T08:33:48;96756.56;;;-0.07;94.81
5500;BME280;2772;42.700;23.304;2023-02-11T08:36:16;96756.56;;;-0.07;94.11
5500;BME280;2772;42.700;23.304;2023-02-11T08:38:44;96741.44;;;-0.12;93.36
5500;BME280;2772;42.700;23.304;2023-02-11T08:41:12;96752.31;;;-0.02;93.17
5500;BME280;2772;42.700;23.304;2023-02-11T08:43:41;96754.56;;;0.08;93.37
5500;BME280;2772;42.700;23.304;2023-02-11T08:46:08;96748.72;;;0.06;93.48
5500;BME280;2772;42.700;23.304;2023-02-11T08:48:35;96757.78;;;0.17;94.02
5500;BME280;2772;42.700;23.304;2023-02-11T08:51:05;96758.00;;;0.28;93.71
5500;BME280;2772;42.700;23.304;2023-02-11T08:53:32;96764.44;;;0.19;94.67
5500;BME280;2772;42.700;23.304;2023-02-11T08:55:59;96756.41;;;0.14;95.12
5500;BME280;2772;42.700;23.304;2023-02-11T08:58:27;96755.19;;;0.23;94.85
5500;BME280;2772;42.700;23.304;2023-02-11T09:00:54;96760.59;;;0.35;95.49
5500;BME280;2772;42.700;23.304;2023-02-11T09:03:21;96747.09;;;0.51;94.19
5500;BME280;2772;42.700;23.304;2023-02-11T09:05:48;96747.31;;;0.62;93.05
5500;BME280;2772;42.700;23.304;2023-02-11T09:08:18;96738.22;;;0.71;91.17
5500;BME280;2772;42.700;23.304;2023-02-11T09:10:45;96741.03;;;0.76;89.79
5500;BME280;2772;42.700;23.304;2023-02-11T09:13:11;96744.22;;;0.91;88.96
5500;BME280;2772;42.700;23.304;2023-02-11T09:15:39;96738.16;;;0.97;86.48
5500;BME280;2772;42.700;23.304;2023-02-11T09:18:10;96736.50;;;1.09;84.86
5500;BME280;2772;42.700;23.304;2023-02-11T09:20:36;96744.13;;;1.17;84.46
5500;BME280;2772;42.700;23.304;2023-02-11T09:23:03;96742.53;;;1.16;83.13
5500;BME280;2772;42.700;23.304;2023-02-11T09:25:30;96723.16;;;1.17;82.96
5500;BME280;2772;42.700;23.304;2023-02-11T09:27:56;96730.38;;;1.28;82.33
5500;BME280;2772;42.700;23.304;2023-02-11T09:30:23;96729.53;;;1.34;81.06
5500;BME280;2772;42.700;23.304;2023-02-11T09:32:51;96736.00;;;1.38;80.12
5500;BME280;2772;42.700;23.304;2023-02-11T09:35:18;96728.31;;;1.43;78.36
5500;BME280;2772;42.700;23.304;2023-02-11T09:37:45;96723.28;;;1.35;77.16
5500;BME280;2772;42.700;23.304;2023-02-11T09:40:12;96738.41;;;1.40;76.74
5500;BME280;2772;42.700;23.304;2023-02-11T09:42:44;96726.50;;;1.37;76.90
5500;BME280;2772;42.700;23.304;2023-02-11T09:45:17;96704.97;;;1.22;76.38
5500;BME280;2772;42.700;23.304;2023-02-11T09:47:51;96713.22;;;1.32;76.28
5500;BME280;2772;42.700;23.304;2023-02-11T09:50:24;96715.00;;;1.38;75.56
5500;BME280;2772;42.700;23.304;2023-02-11T09:52:57;96702.09;;;1.37;74.87
5500;BME280;2772;42.700;23.304;2023-02-11T09:55:26;96701.66;;;1.46;74.81
5500;BME280;2772;42.700;23.304;2023-02-11T09:57:54;96695.94;;;1.56;74.36
5500;BME280;2772;42.700;23.304;2023-02-11T10:00:23;96686.66;;;1.53;74.34
5500;BME280;2772;42.700;23.304;2023-02-11T10:03:07;96680.69;;;1.71;73.92
5500;BME280;2772;42.700;23.304;2023-02-11T10:05:47;96671.31;;;1.82;72.88
5500;BME280;2772;42.700;23.304;2023-02-11T10:08:23;96674.28;;;1.92;71.76
5500;BME280;2772;42.700;23.304;2023-02-11T10:10:53;96668.91;;;2.05;71.16
5500;BME280;2772;42.700;23.304;2023-02-11T10:13:32;96662.06;;;2.04;69.88
5500;BME280;2772;42.700;23.304;2023-02-11T10:16:12;96656.81;;;2.04;69.70
5500;BME280;2772;42.700;23.304;2023-02-11T10:18:58;96652.38;;;2.04;67.32
5500;BME280;2772;42.700;23.304;2023-02-11T10:21:39;96644.44;;;2.11;66.34
5500;BME280;2772;42.700;23.304;2023-02-11T10:24:13;96631.81;;;2.19;66.60
5500;BME280;2772;42.700;23.304;2023-02-11T10:26:42;96632.16;;;2.29;65.35
5500;BME280;2772;42.700;23.304;2023-02-11T10:29:17;96617.16;;;2.12;64.12
5500;BME280;2772;42.700;23.304;2023-02-11T10:31:47;96620.06;;;2.22;63.90
5500;BME280;2772;42.700;23.304;2023-02-11T10:34:17;96607.69;;;2.29;64.25
5500;BME280;2772;42.700;23.304;2023-02-11T10:36:44;96591.25;;;2.33;64.62
5500;BME280;2772;42.700;23.304;2023-02-11T10:39:14;96591.13;;;2.46;64.05
5500;BME280;2772;42.700;23.304;2023-02-11T10:41:43;96585.94;;;2.58;63.80
5500;BME280;2772;42.700;23.304;2023-02-11T10:44:20;96573.44;;;2.53;63.17
5500;BME280;2772;42.700;23.304;2023-02-11T10:46:49;96574.03;;;2.55;63.08
5500;BME280;2772;42.700;23.304;2023-02-11T10:52:16;96561.75;;;2.67;62.22
5500;BME280;2772;42.700;23.304;2023-02-11T10:54:55;96553.78;;;2.74;62.06
5500;BME280;2772;42.700;23.304;2023-02-11T10:57:25;96549.56;;;2.73;60.15
5500;BME280;2772;42.700;23.304;2023-02-11T10:59:57;96545.75;;;2.87;60.63
5500;BME280;2772;42.700;23.304;2023-02-11T11:02:27;96549.91;;;2.76;61.01
5500;BME280;2772;42.700;23.304;2023-02-11T11:04:58;96542.97;;;2.82;60.97
5500;BME280;2772;42.700;23.304;2023-02-11T11:07:29;96535.34;;;2.92;62.25
5500;BME280;2772;42.700;23.304;2023-02-11T11:09:57;96543.50;;;3.02;61.56
5500;BME280;2772;42.700;23.304;2023-02-11T11:12:31;96535.59;;;3.02;60.79
5500;BME280;2772;42.700;23.304;2023-02-11T11:15:00;96550.69;;;2.95;60.46
5500;BME280;2772;42.700;23.304;2023-02-11T11:17:27;96529.19;;;2.98;59.04
5500;BME280;2772;42.700;23.304;2023-02-11T11:20:13;96530.84;;;3.10;59.12
5500;BME280;2772;42.700;23.304;2023-02-11T11:22:42;96531.66;;;3.22;60.23
5500;BME280;2772;42.700;23.304;2023-02-11T11:25:21;96515.97;;;3.16;59.44
5500;BME280;2772;42.700;23.304;2023-02-11T11:27:49;96521.97;;;3.23;57.95
5500;BME280;2772;42.700;23.304;2023-02-11T11:30:17;96511.31;;;3.29;56.49
5500;BME280;2772;42.700;23.304;2023-02-11T11:32:44;96512.88;;;3.19;56.98
5500;BME280;2772;42.700;23.304;2023-02-11T11:35:21;96513.47;;;3.33;57.91
5500;BME280;2772;42.700;23.304;2023-02-11T11:37:53;96505.84;;;3.43;58.05
5500;BME280;2772;42.700;23.304;2023-02-11T11:40:22;96508.59;;;3.48;57.31
5500;BME280;2772;42.700;23.304;2023-02-11T11:43:03;96511.69;;;3.56;57.84
5500;BME280;2772;42.700;23.304;2023-02-11T11:45:30;96505.88;;;3.54;57.92
5500;BME280;2772;42.700;23.304;2023-02-11T11:48:00;96503.47;;;3.53;57.76
5500;BME280;2772;42.700;23.304;2023-02-11T11:50:34;96506.56;;;3.61;58.32
5500;BME280;2772;42.700;23.304;2023-02-11T11:53:09;96494.88;;;3.57;56.80
5500;BME280;2772;42.700;23.304;2023-02-11T11:55:40;96492.38;;;3.62;56.84
5500;BME280;2772;42.700;23.304;2023-02-11T11:58:14;96479.66;;;3.71;57.76
5500;BME280;2772;42.700;23.304;2023-02-11T12:00:49;96475.75;;;3.85;57.17
5500;BME280;2772;42.700;23.304;2023-02-11T12:03:37;96467.63;;;3.86;56.31
5500;BME280;2772;42.700;23.304;2023-02-11T12:06:19;96475.53;;;3.86;54.33
5500;BME280;2772;42.700;23.304;2023-02-11T12:09:00;96461.75;;;3.96;52.75
5500;BME280;2772;42.700;23.304;2023-02-11T12:11:37;96463.59;;;3.95;52.43
5500;BME280;2772;42.700;23.304;2023-02-11T12:14:16;96459.72;;;3.86;51.67
5500;BME280;2772;42.700;23.304;2023-02-11T12:16:53;96457.31;;;3.96;50.69
5500;BME280;2772;42.700;23.304;2023-02-11T12:22:31;96442.38;;;4.02;50.94
5500;BME280;2772;42.700;23.304;2023-02-11T12:25:15;96430.59;;;4.04;51.21
5500;BME280;2772;42.700;23.304;2023-02-11T12:27:49;96432.19;;;4.17;51.03
5500;BME280;2772;42.700;23.304;2023-02-11T12:30:46;96432.25;;;4.22;50.47
5500;BME280;2772;42.700;23.304;2023-02-11T12:33:26;96424.09;;;4.23;50.72
5500;BME280;2772;42.700;23.304;2023-02-11T12:35:58;96430.88;;;4.31;50.25
5500;BME280;2772;42.700;23.304;2023-02-11T12:38:50;96429.69;;;4.38;50.58
5500;BME280;2772;42.700;23.304;2023-02-11T12:41:30;96417.63;;;4.42;50.68
5500;BME280;2772;42.700;23.304;2023-02-11T12:44:25;96419.09;;;4.50;50.26
5500;BME280;2772;42.700;23.304;2023-02-11T12:47:00;96418.44;;;4.43;50.86
5500;BME280;2772;42.700;23.304;2023-02-11T12:49:53;96411.88;;;4.45;50.83
5500;BME280;2772;42.700;23.304;2023-02-11T12:52:39;96408.69;;;4.43;51.47
5500;BME280;2772;42.700;23.304;2023-02-11T12:55:17;96390.78;;;4.45;52.29
5500;BME280;2772;42.700;23.304;2023-02-11T12:57:47;96393.06;;;4.53;52.11
5500;BME280;2772;42.700;23.304;2023-02-11T13:00:18;96394.66;;;4.54;52.18
5500;BME280;2772;42.700;23.304;2023-02-11T13:02:51;96395.22;;;4.56;52.16
5500;BME280;2772;42.700;23.304;2023-02-11T13:05:24;96395.31;;;4.61;51.77
5500;BME280;2772;42.700;23.304;2023-02-11T13:07:56;96395.88;;;4.63;51.25
5500;BME280;2772;42.700;23.304;2023-02-11T13:10:29;96398.13;;;4.71;51.92
5500;BME280;2772;42.700;23.304;2023-02-11T13:13:01;96393.03;;;4.81;50.35
5500;BME280;2772;42.700;23.304;2023-02-11T13:15:44;96390.25;;;4.88;50.57
5500;BME280;2772;42.700;23.304;2023-02-11T13:18:31;96386.16;;;4.80;49.79
5500;BME280;2772;42.700;23.304;2023-02-11T13:21:18;96383.91;;;4.89;49.44
5500;BME280;2772;42.700;23.304;2023-02-11T13:23:54;96377.75;;;4.83;49.12
5500;BME280;2772;42.700;23.304;2023-02-11T13:26:27;96380.88;;;4.80;50.15
5500;BME280;2772;42.700;23.304;2023-02-11T13:29:09;96376.38;;;4.81;50.08
5500;BME280;2772;42.700;23.304;2023-02-11T13:31:41;96380.94;;;4.85;49.55
5500;BME280;2772;42.700;23.304;2023-02-11T13:34:22;96376.00;;;4.72;48.58
5500;BME280;2772;42.700;23.304;2023-02-11T13:36:53;96372.31;;;4.73;48.44
5500;BME280;2772;42.700;23.304;2023-02-11T13:39:21;96377.09;;;4.76;47.84
5500;BME280;2772;42.700;23.304;2023-02-11T13:41:48;96373.72;;;4.64;46.44